createdAt,value
2022-08-20T00:01:17.580Z,100981.94
2022-08-20T00:04:04.823Z,100988.78
2022-08-20T00:06:54.041Z,100988.25
2022-08-20T00:09:41.873Z,100991.66
2022-08-20T00:12:29.721Z,100991.09
2022-08-20T00:15:21.896Z,100995.97
2022-08-20T00:18:09.743Z,100997.56
2022-08-20T00:21:01.190Z,100992.78
2022-08-20T00:23:50.895Z,100995.97
2022-08-20T00:26:37.955Z,100994.50
2022-08-20T00:29:39.022Z,100989.63
2022-08-20T00:32:26.128Z,100989.75
2022-08-20T00:35:18.146Z,100997.09
2022-08-20T00:38:05.371Z,101005.97
2022-08-20T00:40:56.360Z,101008.44
2022-08-20T00:43:47.515Z,101005.97
2022-08-20T00:46:35.264Z,101003.88
2022-08-20T00:49:27.873Z,101001.78
2022-08-20T00:52:19.779Z,101008.19
2022-08-20T00:55:07.133Z,101004.13
2022-08-20T00:58:01.210Z,101007.31
2022-08-20T01:00:49.928Z,101007.91
2022-08-20T01:03:37.027Z,101012.03
2022-08-20T01:06:25.500Z,101016.78
2022-08-20T01:09:14.194Z,101013.56
2022-08-20T01:12:04.242Z,101017.66
2022-08-20T01:14:51.788Z,101021.66
2022-08-20T01:17:45.893Z,101023.41
2022-08-20T01:20:39.838Z,101027.63
2022-08-20T01:23:32.699Z,101023.97
2022-08-20T01:26:23.939Z,101031.25
2022-08-20T01:29:16.740Z,101031.34
2022-08-20T01:32:04.730Z,101036.28
2022-08-20T01:34:51.868Z,101028.13
2022-08-20T01:37:38.962Z,101019.25
2022-08-20T01:41:04.596Z,101028.50
2022-08-20T01:43:58.395Z,101030.59
2022-08-20T01:46:48.670Z,101031.25
2022-08-20T01:49:36.247Z,101047.91
2022-08-20T01:52:29.148Z,101043.94
2022-08-20T01:55:16.190Z,101057.78
2022-08-20T01:58:03.397Z,101053.69
2022-08-20T02:00:50.521Z,101054.56
2022-08-20T02:03:42.862Z,101048.88
2022-08-20T02:06:33.685Z,101041.00
2022-08-20T02:09:21.360Z,101035.81
2022-08-20T02:12:10.236Z,101046.28
2022-08-20T02:14:57.300Z,101054.06
2022-08-20T02:17:44.367Z,101064.84
2022-08-20T02:20:32.260Z,101056.81
2022-08-20T02:23:20.226Z,101058.13
2022-08-20T02:26:07.581Z,101059.44
2022-08-20T02:28:55.640Z,101062.25
2022-08-20T02:32:26.265Z,101074.25
2022-08-20T02:34:51.401Z,101069.47
2022-08-20T02:37:39.257Z,101068.44
2022-08-20T02:40:30.883Z,101069.19
2022-08-20T02:43:19.406Z,101060.72
2022-08-20T02:46:07.542Z,101062.25
2022-08-20T02:48:55.790Z,101063.94
2022-08-20T02:51:42.921Z,101069.34
2022-08-20T02:54:29.963Z,101066.94
2022-08-20T02:57:20.539Z,101070.16
2022-08-20T03:00:18.490Z,101070.63
2022-08-20T03:03:10.621Z,101064.75
2022-08-20T03:05:58.965Z,101056.66
2022-08-20T03:08:46.020Z,101065.66
2022-08-20T03:11:33.320Z,101069.34
2022-08-20T03:14:23.019Z,101069.78
2022-08-20T03:17:10.032Z,101076.63
2022-08-20T03:19:57.043Z,101077.09
2022-08-20T03:22:44.289Z,101074.69
2022-08-20T03:25:31.829Z,101070.66
2022-08-20T03:28:19.669Z,101073.88
2022-08-20T03:31:07.476Z,101068.22
2022-08-20T03:33:54.456Z,101069.81
2022-08-20T03:36:41.514Z,101080.31
2022-08-20T03:39:28.525Z,101088.44
2022-08-20T03:42:15.541Z,101085.97
2022-08-20T03:45:02.778Z,101095.69
2022-08-20T03:47:52.431Z,101088.06
2022-08-20T03:50:41.861Z,101090.09
2022-08-20T03:53:33.353Z,101089.22
2022-08-20T03:56:20.663Z,101090.47
2022-08-20T03:59:08.353Z,101086.84
2022-08-20T04:01:55.663Z,101112.25
2022-08-20T04:04:42.979Z,101110.72
2022-08-20T04:07:29.977Z,101113.06
2022-08-20T04:10:26.018Z,101108.63
2022-08-20T04:13:17.608Z,101119.16
2022-08-20T04:16:12.827Z,101120.34
2022-08-20T04:19:03.652Z,101130.53
2022-08-20T04:21:50.676Z,101129.75
2022-08-20T04:24:37.640Z,101128.91
2022-08-20T04:27:24.632Z,101130.53
2022-08-20T04:30:14.320Z,101130.53
2022-08-20T04:33:02.015Z,101134.56
2022-08-20T04:35:48.974Z,101148.34
2022-08-20T04:38:48.049Z,101142.31
2022-08-20T04:41:37.773Z,101145.94
2022-08-20T04:44:24.818Z,101154.06
2022-08-20T04:47:11.793Z,101147.63
2022-08-20T04:50:01.621Z,101165.41
2022-08-20T04:52:49.393Z,101165.41
2022-08-20T04:55:39.357Z,101166.19
2022-08-20T04:58:38.118Z,101180.72
2022-08-20T05:01:26.271Z,101176.69
2022-08-20T05:04:13.323Z,101180.25
2022-08-20T05:07:00.355Z,101183.88
2022-08-20T05:09:47.439Z,101176.28
2022-08-20T05:12:34.488Z,101196.06
2022-08-20T05:15:24.677Z,101178.69
2022-08-20T05:18:12.743Z,101184.72
2022-08-20T05:21:08.146Z,101188.78
2022-08-20T05:23:55.194Z,101193.25
2022-08-20T05:26:42.281Z,101201.38
2022-08-20T05:29:29.334Z,101200.84
2022-08-20T05:32:16.547Z,101194.28
2022-08-20T05:35:07.850Z,101193.34
2022-08-20T05:37:55.444Z,101187.41
2022-08-20T05:40:43.009Z,101187.00
2022-08-20T05:43:30.379Z,101189.38
2022-08-20T05:46:17.745Z,101192.59
2022-08-20T05:49:04.857Z,101184.53
2022-08-20T05:51:52.069Z,101198.16
2022-08-20T05:54:39.974Z,101193.34
2022-08-20T05:57:27.117Z,101201.31
2022-08-20T06:00:14.705Z,101202.13
2022-08-20T06:03:20.359Z,101211.91
2022-08-20T06:06:17.898Z,101205.53
2022-08-20T06:09:30.720Z,101198.16
2022-08-20T06:12:19.499Z,101195.69
2022-08-20T06:15:07.334Z,101207.78
2022-08-20T06:17:58.491Z,101209.50
2022-08-20T06:20:46.116Z,101207.13
2022-08-20T06:23:56.716Z,101204.31
2022-08-20T06:26:40.557Z,101208.31
2022-08-20T06:29:31.447Z,101208.22
2022-08-20T06:32:21.222Z,101212.50
2022-08-20T06:35:20.278Z,101221.31
2022-08-20T06:38:10.114Z,101208.41
2022-08-20T06:40:57.181Z,101216.56
2022-08-20T06:43:44.257Z,101217.44
2022-08-20T06:46:32.390Z,101226.19
2022-08-20T06:49:19.539Z,101234.19
2022-08-20T06:52:06.866Z,101235.75
2022-08-20T06:54:53.973Z,101237.72
2022-08-20T06:57:42.160Z,101236.75
2022-08-20T07:00:31.812Z,101234.41
2022-08-20T07:03:18.972Z,101243.09
2022-08-20T07:06:06.618Z,101226.38
2022-08-20T07:08:55.884Z,101209.25
2022-08-20T07:11:43.050Z,101212.47
2022-08-20T07:14:30.150Z,101210.00
2022-08-20T07:17:17.196Z,101214.56
2022-08-20T07:20:23.204Z,101222.44
2022-08-20T07:23:12.154Z,101218.06
2022-08-20T07:25:59.710Z,101219.81
2022-08-20T07:28:46.952Z,101217.47
2022-08-20T07:31:52.574Z,101220.19
2022-08-20T07:34:43.595Z,101214.72
2022-08-20T07:37:32.285Z,101229.34
2022-08-20T07:40:26.043Z,101212.47
2022-08-20T07:43:15.774Z,101222.13
2022-08-20T07:46:09.902Z,101218.88
2022-08-20T07:48:57.393Z,101234.19
2022-08-20T07:51:44.465Z,101242.00
2022-08-20T07:54:32.008Z,101236.16
2022-08-20T07:57:19.188Z,101251.53
2022-08-20T08:00:09.028Z,101237.25
2022-08-20T08:02:56.360Z,101245.31
2022-08-20T08:05:54.356Z,101250.19
2022-08-20T08:08:42.125Z,101260.41
2022-08-20T08:11:30.131Z,101268.19
2022-08-20T08:14:23.848Z,101269.31
2022-08-20T08:17:11.522Z,101279.34
2022-08-20T08:19:59.395Z,101274.78
2022-08-20T08:22:46.477Z,101284.16
2022-08-20T08:25:34.109Z,101285.84
2022-08-20T08:28:21.450Z,101288.31
2022-08-20T08:31:08.604Z,101280.31
2022-08-20T08:33:55.851Z,101291.50
2022-08-20T08:36:44.409Z,101300.31
2022-08-20T08:39:34.632Z,101298.72
2022-08-20T08:42:43.389Z,101297.09
2022-08-20T08:45:45.559Z,101293.97
2022-08-20T08:48:43.248Z,101301.34
2022-08-20T08:51:41.927Z,101314.97
2022-08-20T08:54:31.457Z,101315.72
2022-08-20T08:57:19.179Z,101321.34
2022-08-20T09:00:13.626Z,101325.25
2022-08-20T09:03:01.019Z,101329.66
2022-08-20T09:05:54.550Z,101334.06
2022-08-20T09:09:01.175Z,101339.19
2022-08-20T09:11:53.149Z,101338.19
2022-08-20T09:14:40.227Z,101331.72
2022-08-20T09:17:27.311Z,101322.78
2022-08-20T09:20:14.488Z,101315.47
2022-08-20T09:23:01.722Z,101314.53
2022-08-20T09:25:48.883Z,101311.09
2022-08-20T09:28:37.200Z,101298.88
2022-08-20T09:31:24.537Z,101315.34
2022-08-20T09:34:11.748Z,101321.75
2022-08-20T09:36:58.807Z,101319.13
2022-08-20T09:39:45.904Z,101299.50
2022-08-20T09:42:40.731Z,101301.91
2022-08-20T09:45:28.565Z,101282.44
2022-08-20T09:48:15.702Z,101289.16
2022-08-20T09:51:03.502Z,101280.44
2022-08-20T09:53:50.942Z,101289.34
2022-08-20T09:56:38.039Z,101294.78
2022-08-20T09:59:26.024Z,101288.31
2022-08-20T10:02:13.114Z,101277.44
2022-08-20T10:05:00.183Z,101276.34
2022-08-20T10:07:47.701Z,101294.91
2022-08-20T10:10:35.485Z,101285.94
2022-08-20T10:13:25.710Z,101276.00
2022-08-20T10:16:13.356Z,101275.81
2022-08-20T10:19:00.636Z,101279.78
2022-08-20T10:21:49.946Z,101302.91
2022-08-20T10:24:37.132Z,101319.63
2022-08-20T10:27:24.178Z,101317.84
2022-08-20T10:30:12.099Z,101324.34
2022-08-20T10:32:59.285Z,101322.75
2022-08-20T10:35:46.531Z,101320.13
2022-08-20T10:38:33.590Z,101328.19
2022-08-20T10:41:21.481Z,101307.16
2022-08-20T10:44:08.598Z,101288.44
2022-08-20T10:46:57.244Z,101288.75
2022-08-20T10:49:44.625Z,101298.91
2022-08-20T10:52:31.817Z,101285.63
2022-08-20T10:55:19.045Z,101291.88
2022-08-20T10:58:07.785Z,101283.09
2022-08-20T11:00:58.613Z,101291.63
2022-08-20T11:03:45.966Z,101282.19
2022-08-20T11:06:33.210Z,101275.41
2022-08-20T11:09:21.570Z,101288.22
2022-08-20T11:12:09.329Z,101305.00
2022-08-20T11:14:56.784Z,101286.28
2022-08-20T11:17:45.348Z,101283.38
2022-08-20T11:20:33.138Z,101290.81
2022-08-20T11:23:20.267Z,101285.25
2022-08-20T11:26:07.357Z,101282.25
2022-08-20T11:28:54.346Z,101289.59
2022-08-20T11:31:41.614Z,101295.53
2022-08-20T11:34:28.873Z,101308.44
2022-08-20T11:37:17.750Z,101319.81
2022-08-20T11:40:05.829Z,101307.06
2022-08-20T11:43:13.821Z,101277.00
2022-08-20T11:46:00.689Z,101281.50
2022-08-20T11:48:47.944Z,101286.69
2022-08-20T11:51:50.044Z,101275.72
2022-08-20T11:54:40.718Z,101278.19
2022-08-20T11:57:32.388Z,101302.09
2022-08-20T12:00:32.008Z,101292.56
2022-08-20T12:03:20.480Z,101286.25
2022-08-20T12:06:07.988Z,101292.88
2022-08-20T12:08:55.057Z,101280.72
2022-08-20T12:11:42.260Z,101290.97
2022-08-20T12:14:29.409Z,101279.66
2022-08-20T12:17:26.809Z,101292.81
2022-08-20T12:20:15.161Z,101311.13
2022-08-20T12:23:02.240Z,101281.59
2022-08-20T12:25:49.882Z,101295.81
2022-08-20T12:28:37.121Z,101282.78
2022-08-20T12:31:24.203Z,101298.53
2022-08-20T12:34:11.239Z,101293.50
2022-08-20T12:37:12.818Z,101261.84
2022-08-20T12:40:05.882Z,101270.06
2022-08-20T12:42:53.105Z,101289.38
2022-08-20T12:45:41.354Z,101252.00
2022-08-20T12:48:28.530Z,101272.19
2022-08-20T12:51:15.655Z,101272.38
2022-08-20T12:54:02.809Z,101259.78
2022-08-20T12:56:52.143Z,101242.09
2022-08-20T12:59:39.230Z,101229.38
2022-08-20T13:02:27.441Z,101253.25
2022-08-20T13:05:16.004Z,101244.84
2022-08-20T13:08:08.402Z,101242.63
2022-08-20T13:10:55.546Z,101255.66
2022-08-20T13:13:43.620Z,101255.91
2022-08-20T13:16:31.203Z,101247.97
2022-08-20T13:19:18.158Z,101268.75
2022-08-20T13:22:05.486Z,101252.72
2022-08-20T13:24:53.700Z,101237.47
2022-08-20T13:27:43.007Z,101246.28
2022-08-20T13:30:30.384Z,101239.56
2022-08-20T13:33:17.533Z,101238.81
2022-08-20T13:36:04.887Z,101237.75
2022-08-20T13:38:52.203Z,101247.25
2022-08-20T13:41:39.327Z,101208.75
2022-08-20T13:44:31.342Z,101222.59
2022-08-20T13:47:25.911Z,101225.78
2022-08-20T13:50:19.946Z,101232.28
2022-08-20T13:53:07.268Z,101226.03
2022-08-20T13:55:54.403Z,101211.59
2022-08-20T13:58:41.581Z,101215.31
2022-08-20T14:01:28.900Z,101224.25
2022-08-20T14:04:16.159Z,101209.41
2022-08-20T14:07:14.644Z,101212.00
2022-08-20T14:10:09.619Z,101205.31
2022-08-20T14:12:57.025Z,101216.47
2022-08-20T14:15:45.751Z,101215.47
2022-08-20T14:18:33.080Z,101204.47
2022-08-20T14:21:20.189Z,101210.97
2022-08-20T14:24:07.458Z,101205.72
2022-08-20T14:26:54.401Z,101203.84
2022-08-20T14:29:43.259Z,101195.25
2022-08-20T14:32:30.301Z,101197.31
2022-08-20T14:35:17.947Z,101212.94
2022-08-20T14:38:05.643Z,101214.88
2022-08-20T14:40:52.702Z,101212.47
2022-08-20T14:43:39.794Z,101208.03
2022-08-20T14:46:26.830Z,101222.19
2022-08-20T14:49:15.647Z,101226.66
2022-08-20T14:52:02.750Z,101228.91
2022-08-20T14:54:51.002Z,101225.28
2022-08-20T14:57:39.826Z,101196.09
2022-08-20T15:00:30.186Z,101208.84
2022-08-20T15:03:17.281Z,101194.72
2022-08-20T15:06:10.869Z,101203.53
2022-08-20T15:09:09.323Z,101198.28
2022-08-20T15:11:56.482Z,101191.78
2022-08-20T15:14:43.702Z,101188.53
2022-08-20T15:17:35.058Z,101179.28
2022-08-20T15:20:26.070Z,101180.63
2022-08-20T15:23:13.219Z,101196.66
2022-08-20T15:26:00.357Z,101225.69
2022-08-20T15:28:47.762Z,101210.72
2022-08-20T15:31:35.147Z,101204.66
2022-08-20T15:34:22.383Z,101197.69
2022-08-20T15:37:16.266Z,101208.47
2022-08-20T15:40:07.749Z,101209.94
2022-08-20T15:42:54.790Z,101208.22
2022-08-20T15:45:42.028Z,101197.41
2022-08-20T15:48:38.163Z,101205.38
2022-08-20T15:51:45.209Z,101191.94
2022-08-20T15:54:32.355Z,101186.03
2022-08-20T15:57:53.478Z,101194.38
2022-08-20T16:00:56.952Z,101186.34
2022-08-20T16:04:23.322Z,101194.81
2022-08-20T16:07:17.290Z,101181.81
2022-08-20T16:10:18.439Z,101190.81
2022-08-20T16:13:41.609Z,101188.41
2022-08-20T16:16:43.482Z,101196.41
2022-08-20T16:19:58.801Z,101209.44
2022-08-20T16:22:47.330Z,101203.69
2022-08-20T16:25:52.474Z,101227.81
2022-08-20T16:29:01.238Z,101214.81
2022-08-20T16:32:17.497Z,101207.88
2022-08-20T16:35:29.429Z,101203.31
2022-08-20T16:38:23.670Z,101206.63
2022-08-20T16:41:26.600Z,101203.91
2022-08-20T16:44:33.176Z,101210.41
2022-08-20T16:47:27.271Z,101218.06
2022-08-20T16:50:21.782Z,101214.53
2022-08-20T16:53:21.421Z,101210.84
2022-08-20T16:56:08.973Z,101219.78
2022-08-20T16:58:56.093Z,101210.66
2022-08-20T17:01:43.492Z,101219.09
2022-08-20T17:04:30.793Z,101216.72
2022-08-20T17:07:46.301Z,101233.72
2022-08-20T17:10:55.659Z,101230.53
2022-08-20T17:13:46.026Z,101240.34
2022-08-20T17:16:46.127Z,101245.94
2022-08-20T17:19:34.315Z,101240.03
2022-08-20T17:22:22.279Z,101231.19
2022-08-20T17:25:35.881Z,101232.34
2022-08-20T17:28:26.138Z,101233.94
2022-08-20T17:31:38.564Z,101236.22
2022-08-20T17:34:32.914Z,101230.88
2022-08-20T17:37:22.951Z,101246.53
2022-08-20T17:40:19.915Z,101249.72
2022-08-20T17:43:09.850Z,101246.19
2022-08-20T17:45:59.716Z,101252.25
2022-08-20T17:48:49.348Z,101245.38
2022-08-20T17:51:47.167Z,101242.94
2022-08-20T17:54:42.322Z,101240.09
2022-08-20T17:57:37.121Z,101231.38
2022-08-20T18:00:28.160Z,101232.63
2022-08-20T18:03:20.578Z,101254.44
2022-08-20T18:06:16.806Z,101252.41
2022-08-20T18:09:33.116Z,101265.47
2022-08-20T18:12:33.935Z,101251.41
2022-08-20T18:15:26.252Z,101262.19
2022-08-20T18:18:26.065Z,101256.59
2022-08-20T18:21:31.827Z,101267.06
2022-08-20T18:24:41.155Z,101272.19
2022-08-20T18:27:36.867Z,101265.00
2022-08-20T18:30:26.102Z,101263.78
2022-08-20T18:33:13.838Z,101266.06
2022-08-20T18:36:22.195Z,101263.31
2022-08-20T18:39:24.582Z,101264.38
2022-08-20T18:42:17.534Z,101275.72
2022-08-20T18:45:06.068Z,101271.50
2022-08-20T18:47:53.057Z,101272.59
2022-08-20T18:50:40.025Z,101270.88
2022-08-20T18:53:34.250Z,101271.44
2022-08-20T18:56:35.987Z,101274.91
2022-08-20T18:59:23.172Z,101281.50
2022-08-20T19:02:22.091Z,101278.41
2022-08-20T19:05:12.410Z,101281.03
2022-08-20T19:08:03.426Z,101294.16
2022-08-20T19:11:25.557Z,101295.13
2022-08-20T19:14:34.169Z,101290.41
2022-08-20T19:17:42.613Z,101292.09
2022-08-20T19:20:32.762Z,101292.22
2022-08-20T19:23:21.990Z,101287.84
2022-08-20T19:26:25.966Z,101291.19
2022-08-20T19:29:21.837Z,101292.84
2022-08-20T19:32:18.492Z,101287.66
2022-08-20T19:35:08.589Z,101281.28
2022-08-20T19:37:55.757Z,101282.16
2022-08-20T19:40:46.184Z,101290.72
2022-08-20T19:43:42.646Z,101288.31
2022-08-20T19:46:35.258Z,101288.38
2022-08-20T19:49:42.965Z,101303.38
2022-08-20T19:52:45.661Z,101314.75
2022-08-20T19:55:36.054Z,101312.38
2022-08-20T19:58:26.177Z,101318.09
2022-08-20T20:01:21.461Z,101310.88
2022-08-20T20:04:16.827Z,101310.09
2022-08-20T20:07:09.084Z,101309.28
2022-08-20T20:09:58.153Z,101312.97
2022-08-20T20:12:47.615Z,101313.78
2022-08-20T20:15:35.020Z,101301.31
2022-08-20T20:18:26.450Z,101298.50
2022-08-20T20:21:22.827Z,101301.75
2022-08-20T20:24:19.869Z,101294.13
2022-08-20T20:27:15.028Z,101299.81
2022-08-20T20:30:12.369Z,101299.84
2022-08-20T20:33:01.959Z,101295.81
2022-08-20T20:35:49.969Z,101295.03
2022-08-20T20:38:40.017Z,101289.41
2022-08-20T20:41:29.232Z,101295.09
2022-08-20T20:44:19.179Z,101302.38
2022-08-20T20:47:16.987Z,101300.78
2022-08-20T20:50:10.651Z,101299.16
2022-08-20T20:52:59.423Z,101299.56
2022-08-20T20:55:56.557Z,101302.81
2022-08-20T20:58:49.828Z,101291.09
2022-08-20T21:01:48.220Z,101295.16
2022-08-20T21:04:40.684Z,101299.16
2022-08-20T21:07:29.461Z,101297.16
2022-08-20T21:10:17.606Z,101308.09
2022-08-20T21:13:08.114Z,101296.81
2022-08-20T21:15:55.290Z,101310.50
2022-08-20T21:18:42.326Z,101315.72
2022-08-20T21:21:29.333Z,101316.53
2022-08-20T21:24:16.402Z,101316.13
2022-08-20T21:27:04.057Z,101319.38
2022-08-20T21:29:52.115Z,101315.34
2022-08-20T21:32:39.166Z,101325.00
2022-08-20T21:35:26.282Z,101325.41
2022-08-20T21:38:13.805Z,101321.38
2022-08-20T21:41:01.747Z,101315.31
2022-08-20T21:43:49.648Z,101313.69
2022-08-20T21:46:36.699Z,101316.88
2022-08-20T21:49:24.667Z,101316.88
2022-08-20T21:52:11.693Z,101322.91
2022-08-20T21:54:58.643Z,101323.28
2022-08-20T21:57:48.043Z,101324.91
2022-08-20T22:01:01.637Z,101324.91
2022-08-20T22:03:49.601Z,101326.13
2022-08-20T22:06:38.937Z,101323.69
2022-08-20T22:09:25.949Z,101319.25
2022-08-20T22:12:20.048Z,101310.34
2022-08-20T22:15:07.581Z,101312.34
2022-08-20T22:17:54.655Z,101310.34
2022-08-20T22:20:43.085Z,101318.41
2022-08-20T22:23:30.022Z,101316.38
2022-08-20T22:26:18.488Z,101319.97
2022-08-20T22:29:06.775Z,101315.16
2022-08-20T22:31:54.131Z,101316.75
2022-08-20T22:34:41.305Z,101313.50
2022-08-20T22:37:31.280Z,101313.88
2022-08-20T22:40:22.172Z,101311.03
2022-08-20T22:43:09.403Z,101309.41
2022-08-20T22:46:00.559Z,101316.22
2022-08-20T22:48:47.690Z,101307.75
2022-08-20T22:51:41.359Z,101313.41
2022-08-20T22:54:28.593Z,101310.13
2022-08-20T22:57:15.792Z,101310.91
2022-08-20T23:00:12.952Z,101311.34
2022-08-20T23:03:01.325Z,101311.31
2022-08-20T23:05:48.822Z,101310.88
2022-08-20T23:08:36.157Z,101304.44
2022-08-20T23:11:23.179Z,101304.41
2022-08-20T23:14:10.373Z,101306.41
2022-08-20T23:17:01.543Z,101309.19
2022-08-20T23:19:50.158Z,101295.38
2022-08-20T23:22:37.696Z,101297.81
2022-08-20T23:25:25.053Z,101291.72
2022-08-20T23:28:18.475Z,101285.63
2022-08-20T23:31:05.677Z,101286.81
2022-08-20T23:33:52.756Z,101290.44
2022-08-20T23:36:40.199Z,101291.25
2022-08-20T23:39:28.651Z,101292.88
2022-08-20T23:42:17.355Z,101291.25
2022-08-20T23:45:05.692Z,101292.03
2022-08-20T23:47:53.507Z,101285.97
2022-08-20T23:50:40.689Z,101287.59
2022-08-20T23:53:28.369Z,101291.19
2022-08-20T23:56:15.498Z,101285.56
2022-08-20T23:59:02.541Z,101279.09
